sensor_id;sensor_type;location;lat;lon;timestamp;P1;durP1;ratioP1;P2;durP2;ratioP2
6610;SDS011;44111;46.692;13.664;2023-03-01T00:00:25;17.53;;;14.23;;
6610;SDS011;44111;46.692;13.664;2023-03-01T00:02:52;18.17;;;14.03;;
6610;SDS011;44111;46.692;13.664;2023-03-01T00:05:21;19.47;;;14.37;;
6610;SDS011;44111;46.692;13.664;2023-03-01T00:07:52;17.30;;;13.67;;
6610;SDS011;44111;46.692;13.664;2023-03-01T00:10:19;18.77;;;13.23;;
6610;SDS011;44111;46.692;13.664;2023-03-01T00:12:46;20.13;;;14.20;;
6610;SDS011;44111;46.692;13.664;2023-03-01T00:15:13;20.43;;;15.33;;
6610;SDS011;44111;46.692;13.664;2023-03-01T00:17:40;19.93;;;15.60;;
6610;SDS011;44111;46.692;13.664;2023-03-01T00:20:08;23.57;;;15.93;;
6610;SDS011;44111;46.692;13.664;2023-03-01T00:22:37;19.60;;;15.43;;
6610;SDS011;44111;46.692;13.664;2023-03-01T00:25:04;17.57;;;14.10;;
6610;SDS011;44111;46.692;13.664;2023-03-01T00:27:32;17.43;;;14.07;;
6610;SDS011;44111;46.692;13.664;2023-03-01T00:29:59;17.97;;;13.40;;
6610;SDS011;44111;46.692;13.664;2023-03-01T00:32:26;17.90;;;13.80;;
6610;SDS011;44111;46.692;13.664;2023-03-01T00:34:53;15.57;;;12.43;;
6610;SDS011;44111;46.692;13.664;2023-03-01T00:37:21;16.23;;;13.03;;
6610;SDS011;44111;46.692;13.664;2023-03-01T00:39:50;19.60;;;14.87;;
6610;SDS011;44111;46.692;13.664;2023-03-01T00:42:17;17.93;;;14.17;;
6610;SDS011;44111;46.692;13.664;2023-03-01T00:44:44;20.07;;;14.87;;
6610;SDS011;44111;46.692;13.664;2023-03-01T00:47:11;17.57;;;14.30;;
6610;SDS011;44111;46.692;13.664;2023-03-01T00:49:39;19.23;;;14.33;;
6610;SDS011;44111;46.692;13.664;2023-03-01T00:52:06;18.63;;;13.57;;
6610;SDS011;44111;46.692;13.664;2023-03-01T00:54:33;20.27;;;13.53;;
6610;SDS011;44111;46.692;13.664;2023-03-01T00:57:01;19.70;;;14.67;;
6610;SDS011;44111;46.692;13.664;2023-03-01T00:59:29;17.23;;;13.63;;
6610;SDS011;44111;46.692;13.664;2023-03-01T01:01:56;20.70;;;14.30;;
6610;SDS011;44111;46.692;13.664;2023-03-01T01:04:24;17.07;;;13.53;;
6610;SDS011;44111;46.692;13.664;2023-03-01T01:06:51;17.47;;;14.13;;
6610;SDS011;44111;46.692;13.664;2023-03-01T01:09:18;15.77;;;12.93;;
6610;SDS011;44111;46.692;13.664;2023-03-01T01:11:46;17.97;;;13.73;;
6610;SDS011;44111;46.692;13.664;2023-03-01T01:14:16;16.17;;;13.10;;
6610;SDS011;44111;46.692;13.664;2023-03-01T01:16:43;16.47;;;12.73;;
6610;SDS011;44111;46.692;13.664;2023-03-01T01:19:11;14.97;;;12.30;;
6610;SDS011;44111;46.692;13.664;2023-03-01T01:21:39;16.10;;;12.67;;
6610;SDS011;44111;46.692;13.664;2023-03-01T01:24:08;16.93;;;12.77;;
6610;SDS011;44111;46.692;13.664;2023-03-01T01:26:35;20.00;;;13.90;;
6610;SDS011;44111;46.692;13.664;2023-03-01T01:29:03;20.20;;;14.07;;
6610;SDS011;44111;46.692;13.664;2023-03-01T01:31:33;17.90;;;14.33;;
6610;SDS011;44111;46.692;13.664;2023-03-01T01:34:02;18.30;;;13.97;;
6610;SDS011;44111;46.692;13.664;2023-03-01T01:36:30;16.77;;;14.40;;
6610;SDS011;44111;46.692;13.664;2023-03-01T01:38:58;20.47;;;15.17;;
6610;SDS011;44111;46.692;13.664;2023-03-01T01:41:25;22.03;;;15.93;;
6610;SDS011;44111;46.692;13.664;2023-03-01T01:46:47;21.77;;;14.83;;
6610;SDS011;44111;46.692;13.664;2023-03-01T01:49:21;18.30;;;14.10;;
6610;SDS011;44111;46.692;13.664;2023-03-01T01:51:52;19.03;;;14.73;;
6610;SDS011;44111;46.692;13.664;2023-03-01T01:54:24;19.53;;;14.03;;
6610;SDS011;44111;46.692;13.664;2023-03-01T01:56:55;19.73;;;15.07;;
6610;SDS011;44111;46.692;13.664;2023-03-01T01:59:24;19.00;;;15.27;;
6610;SDS011;44111;46.692;13.664;2023-03-01T02:01:53;20.07;;;14.73;;
6610;SDS011;44111;46.692;13.664;2023-03-01T02:04:21;18.23;;;14.10;;
6610;SDS011;44111;46.692;13.664;2023-03-01T02:06:49;17.80;;;14.43;;
6610;SDS011;44111;46.692;13.664;2023-03-01T02:09:20;18.13;;;14.70;;
6610;SDS011;44111;46.692;13.664;2023-03-01T02:11:47;24.77;;;15.00;;
6610;SDS011;44111;46.692;13.664;2023-03-01T02:14:15;19.73;;;14.97;;
6610;SDS011;44111;46.692;13.664;2023-03-01T02:16:42;23.23;;;15.37;;
6610;SDS011;44111;46.692;13.664;2023-03-01T02:19:13;21.97;;;14.93;;
6610;SDS011;44111;46.692;13.664;2023-03-01T02:21:48;20.27;;;14.37;;
6610;SDS011;44111;46.692;13.664;2023-03-01T02:24:22;19.20;;;15.20;;
6610;SDS011;44111;46.692;13.664;2023-03-01T02:26:54;18.77;;;15.23;;
6610;SDS011;44111;46.692;13.664;2023-03-01T02:29:23;18.40;;;14.73;;
6610;SDS011;44111;46.692;13.664;2023-03-01T02:31:52;18.97;;;14.57;;
6610;SDS011;44111;46.692;13.664;2023-03-01T02:34:19;19.43;;;14.67;;
6610;SDS011;44111;46.692;13.664;2023-03-01T02:36:48;18.53;;;13.93;;
6610;SDS011;44111;46.692;13.664;2023-03-01T02:39:20;18.57;;;14.80;;
6610;SDS011;44111;46.692;13.664;2023-03-01T02:41:52;20.07;;;14.57;;
6610;SDS011;44111;46.692;13.664;2023-03-01T02:44:20;20.00;;;13.27;;
6610;SDS011;44111;46.692;13.664;2023-03-01T02:46:50;20.90;;;14.60;;
6610;SDS011;44111;46.692;13.664;2023-03-01T02:49:20;17.27;;;13.57;;
6610;SDS011;44111;46.692;13.664;2023-03-01T02:51:52;18.67;;;14.40;;
6610;SDS011;44111;46.692;13.664;2023-03-01T02:54:28;20.90;;;15.50;;
6610;SDS011;44111;46.692;13.664;2023-03-01T02:56:57;21.50;;;15.00;;
6610;SDS011;44111;46.692;13.664;2023-03-01T02:59:26;21.97;;;15.57;;
6610;SDS011;44111;46.692;13.664;2023-03-01T03:01:56;19.47;;;14.63;;
6610;SDS011;44111;46.692;13.664;2023-03-01T03:04:23;18.03;;;13.80;;
6610;SDS011;44111;46.692;13.664;2023-03-01T03:06:51;19.43;;;14.70;;
6610;SDS011;44111;46.692;13.664;2023-03-01T03:09:18;21.10;;;15.63;;
6610;SDS011;44111;46.692;13.664;2023-03-01T03:11:46;19.97;;;13.80;;
6610;SDS011;44111;46.692;13.664;2023-03-01T03:14:13;18.83;;;14.30;;
6610;SDS011;44111;46.692;13.664;2023-03-01T03:16:44;18.50;;;13.53;;
6610;SDS011;44111;46.692;13.664;2023-03-01T03:19:14;18.03;;;15.20;;
6610;SDS011;44111;46.692;13.664;2023-03-01T03:21:41;21.07;;;15.07;;
6610;SDS011;44111;46.692;13.664;2023-03-01T03:24:09;19.20;;;15.03;;
6610;SDS011;44111;46.692;13.664;2023-03-01T03:26:36;21.40;;;15.47;;
6610;SDS011;44111;46.692;13.664;2023-03-01T03:29:03;19.57;;;14.93;;
6610;SDS011;44111;46.692;13.664;2023-03-01T03:31:30;21.13;;;15.20;;
6610;SDS011;44111;46.692;13.664;2023-03-01T03:33:57;21.07;;;16.27;;
6610;SDS011;44111;46.692;13.664;2023-03-01T03:36:26;20.80;;;16.10;;
6610;SDS011;44111;46.692;13.664;2023-03-01T03:38:53;19.67;;;15.77;;
6610;SDS011;44111;46.692;13.664;2023-03-01T03:41:20;21.43;;;16.43;;
6610;SDS011;44111;46.692;13.664;2023-03-01T03:43:47;20.17;;;14.90;;
6610;SDS011;44111;46.692;13.664;2023-03-01T03:46:14;18.80;;;16.00;;
6610;SDS011;44111;46.692;13.664;2023-03-01T03:48:42;21.57;;;15.73;;
6610;SDS011;44111;46.692;13.664;2023-03-01T03:51:11;21.97;;;16.03;;
6610;SDS011;44111;46.692;13.664;2023-03-01T03:53:40;19.80;;;14.80;;
6610;SDS011;44111;46.692;13.664;2023-03-01T03:56:08;19.23;;;15.17;;
6610;SDS011;44111;46.692;13.664;2023-03-01T03:58:35;21.60;;;15.63;;
6610;SDS011;44111;46.692;13.664;2023-03-01T04:01:02;23.07;;;16.00;;
6610;SDS011;44111;46.692;13.664;2023-03-01T04:03:30;19.77;;;15.70;;
6610;SDS011;44111;46.692;13.664;2023-03-01T04:06:00;18.13;;;14.60;;
6610;SDS011;44111;46.692;13.664;2023-03-01T04:08:29;19.30;;;15.13;;
6610;SDS011;44111;46.692;13.664;2023-03-01T04:10:58;18.00;;;15.30;;
6610;SDS011;44111;46.692;13.664;2023-03-01T04:13:47;17.77;;;14.97;;
6610;SDS011;44111;46.692;13.664;2023-03-01T04:16:14;20.97;;;15.07;;
6610;SDS011;44111;46.692;13.664;2023-03-01T04:18:41;20.47;;;15.87;;
6610;SDS011;44111;46.692;13.664;2023-03-01T04:21:08;20.43;;;15.50;;
6610;SDS011;44111;46.692;13.664;2023-03-01T04:23:36;20.00;;;14.53;;
6610;SDS011;44111;46.692;13.664;2023-03-01T04:26:06;17.80;;;14.43;;
6610;SDS011;44111;46.692;13.664;2023-03-01T04:28:33;17.70;;;13.90;;
6610;SDS011;44111;46.692;13.664;2023-03-01T04:31:02;18.30;;;14.23;;
6610;SDS011;44111;46.692;13.664;2023-03-01T04:33:38;21.27;;;15.53;;
6610;SDS011;44111;46.692;13.664;2023-03-01T04:36:06;19.87;;;14.47;;
6610;SDS011;44111;46.692;13.664;2023-03-01T04:38:35;18.60;;;13.97;;
6610;SDS011;44111;46.692;13.664;2023-03-01T04:41:04;17.87;;;14.13;;
6610;SDS011;44111;46.692;13.664;2023-03-01T04:43:33;17.93;;;14.33;;
6610;SDS011;44111;46.692;13.664;2023-03-01T04:46:01;21.13;;;16.47;;
6610;SDS011;44111;46.692;13.664;2023-03-01T04:48:29;21.57;;;16.60;;
6610;SDS011;44111;46.692;13.664;2023-03-01T04:50:57;20.13;;;15.47;;
6610;SDS011;44111;46.692;13.664;2023-03-01T04:53:25;19.40;;;15.70;;
6610;SDS011;44111;46.692;13.664;2023-03-01T04:55:52;23.70;;;17.43;;
6610;SDS011;44111;46.692;13.664;2023-03-01T04:58:22;22.30;;;15.87;;
6610;SDS011;44111;46.692;13.664;2023-03-01T05:00:49;21.80;;;16.00;;
6610;SDS011;44111;46.692;13.664;2023-03-01T05:03:16;21.43;;;15.80;;
6610;SDS011;44111;46.692;13.664;2023-03-01T05:05:45;21.80;;;16.50;;
6610;SDS011;44111;46.692;13.664;2023-03-01T05:08:13;20.43;;;15.47;;
6610;SDS011;44111;46.692;13.664;2023-03-01T05:10:44;23.47;;;17.37;;
6610;SDS011;44111;46.692;13.664;2023-03-01T05:13:12;25.30;;;18.50;;
6610;SDS011;44111;46.692;13.664;2023-03-01T05:15:48;24.90;;;17.40;;
6610;SDS011;44111;46.692;13.664;2023-03-01T05:18:16;18.80;;;16.23;;
6610;SDS011;44111;46.692;13.664;2023-03-01T05:20:43;21.80;;;17.30;;
6610;SDS011;44111;46.692;13.664;2023-03-01T05:23:12;22.80;;;16.80;;
6610;SDS011;44111;46.692;13.664;2023-03-01T05:25:39;23.73;;;17.70;;
6610;SDS011;44111;46.692;13.664;2023-03-01T05:28:07;23.93;;;17.30;;
6610;SDS011;44111;46.692;13.664;2023-03-01T05:30:38;21.90;;;17.40;;
6610;SDS011;44111;46.692;13.664;2023-03-01T05:33:07;21.77;;;16.87;;
6610;SDS011;44111;46.692;13.664;2023-03-01T05:35:39;20.00;;;16.00;;
6610;SDS011;44111;46.692;13.664;2023-03-01T05:38:07;19.10;;;14.93;;
6610;SDS011;44111;46.692;13.664;2023-03-01T05:40:38;26.03;;;17.27;;
6610;SDS011;44111;46.692;13.664;2023-03-01T05:43:05;23.07;;;16.40;;
6610;SDS011;44111;46.692;13.664;2023-03-01T05:45:34;20.83;;;16.53;;
6610;SDS011;44111;46.692;13.664;2023-03-01T05:48:02;22.57;;;16.40;;
6610;SDS011;44111;46.692;13.664;2023-03-01T05:50:32;21.90;;;16.37;;
6610;SDS011;44111;46.692;13.664;2023-03-01T05:53:00;19.43;;;15.70;;
6610;SDS011;44111;46.692;13.664;2023-03-01T05:55:30;20.43;;;15.73;;
6610;SDS011;44111;46.692;13.664;2023-03-01T05:57:58;22.37;;;16.53;;
6610;SDS011;44111;46.692;13.664;2023-03-01T06:00:26;23.33;;;17.23;;
6610;SDS011;44111;46.692;13.664;2023-03-01T06:02:54;27.13;;;18.20;;
6610;SDS011;44111;46.692;13.664;2023-03-01T06:05:21;22.57;;;16.33;;
6610;SDS011;44111;46.692;13.664;2023-03-01T06:07:50;21.93;;;16.53;;
6610;SDS011;44111;46.692;13.664;2023-03-01T06:10:18;24.80;;;18.20;;
6610;SDS011;44111;46.692;13.664;2023-03-01T06:12:47;21.80;;;16.47;;
6610;SDS011;44111;46.692;13.664;2023-03-01T06:15:15;23.93;;;18.37;;
6610;SDS011;44111;46.692;13.664;2023-03-01T06:17:44;22.87;;;17.70;;
6610;SDS011;44111;46.692;13.664;2023-03-01T06:20:13;24.10;;;18.13;;
6610;SDS011;44111;46.692;13.664;2023-03-01T06:22:41;22.93;;;17.73;;
6610;SDS011;44111;46.692;13.664;2023-03-01T06:25:10;25.00;;;18.47;;
6610;SDS011;44111;46.692;13.664;2023-03-01T06:27:39;25.17;;;18.53;;
6610;SDS011;44111;46.692;13.664;2023-03-01T06:30:07;23.73;;;16.50;;
6610;SDS011;44111;46.692;13.664;2023-03-01T06:32:36;21.33;;;16.10;;
6610;SDS011;44111;46.692;13.664;2023-03-01T06:35:07;22.37;;;17.13;;
6610;SDS011;44111;46.692;13.664;2023-03-01T06:37:34;21.53;;;16.30;;
6610;SDS011;44111;46.692;13.664;2023-03-01T06:40:02;23.13;;;17.93;;
6610;SDS011;44111;46.692;13.664;2023-03-01T06:42:35;38.87;;;29.70;;
6610;SDS011;44111;46.692;13.664;2023-03-01T06:45:02;35.07;;;28.70;;
6610;SDS011;44111;46.692;13.664;2023-03-01T06:47:30;25.07;;;18.50;;
6610;SDS011;44111;46.692;13.664;2023-03-01T06:49:58;23.93;;;17.70;;
6610;SDS011;44111;46.692;13.664;2023-03-01T06:52:25;25.53;;;17.87;;
6610;SDS011;44111;46.692;13.664;2023-03-01T06:54:52;24.00;;;17.27;;
6610;SDS011;44111;46.692;13.664;2023-03-01T06:57:19;24.97;;;17.37;;
6610;SDS011;44111;46.692;13.664;2023-03-01T06:59:48;22.83;;;17.23;;
6610;SDS011;44111;46.692;13.664;2023-03-01T07:02:15;24.60;;;17.80;;
6610;SDS011;44111;46.692;13.664;2023-03-01T07:04:42;27.90;;;17.37;;
6610;SDS011;44111;46.692;13.664;2023-03-01T07:07:09;22.77;;;17.73;;
6610;SDS011;44111;46.692;13.664;2023-03-01T07:09:37;30.23;;;18.97;;
6610;SDS011;44111;46.692;13.664;2023-03-01T07:12:04;24.00;;;18.23;;
6610;SDS011;44111;46.692;13.664;2023-03-01T07:14:32;25.80;;;18.77;;
6610;SDS011;44111;46.692;13.664;2023-03-01T07:17:00;27.53;;;19.70;;
6610;SDS011;44111;46.692;13.664;2023-03-01T07:19:27;27.43;;;18.50;;
6610;SDS011;44111;46.692;13.664;2023-03-01T07:21:55;29.03;;;19.60;;
6610;SDS011;44111;46.692;13.664;2023-03-01T07:24:22;27.77;;;19.73;;
6610;SDS011;44111;46.692;13.664;2023-03-01T07:26:49;26.87;;;18.70;;
6610;SDS011;44111;46.692;13.664;2023-03-01T07:29:16;27.53;;;19.47;;
6610;SDS011;44111;46.692;13.664;2023-03-01T07:31:44;26.87;;;17.73;;
6610;SDS011;44111;46.692;13.664;2023-03-01T07:34:13;23.57;;;17.90;;
6610;SDS011;44111;46.692;13.664;2023-03-01T07:36:40;27.00;;;19.00;;
6610;SDS011;44111;46.692;13.664;2023-03-01T07:39:08;28.77;;;18.63;;
6610;SDS011;44111;46.692;13.664;2023-03-01T07:41:36;25.63;;;17.93;;
6610;SDS011;44111;46.692;13.664;2023-03-01T07:44:03;23.03;;;17.67;;
6610;SDS011;44111;46.692;13.664;2023-03-01T07:46:30;25.97;;;17.93;;
6610;SDS011;44111;46.692;13.664;2023-03-01T07:48:57;26.30;;;17.90;;
6610;SDS011;44111;46.692;13.664;2023-03-01T07:51:26;23.50;;;17.27;;
6610;SDS011;44111;46.692;13.664;2023-03-01T07:53:53;25.50;;;18.20;;
6610;SDS011;44111;46.692;13.664;2023-03-01T07:56:20;23.77;;;18.47;;
6610;SDS011;44111;46.692;13.664;2023-03-01T07:58:47;27.77;;;19.23;;
6610;SDS011;44111;46.692;13.664;2023-03-01T08:01:16;24.00;;;17.90;;
6610;SDS011;44111;46.692;13.664;2023-03-01T08:03:45;25.63;;;19.17;;
6610;SDS011;44111;46.692;13.664;2023-03-01T08:06:13;23.83;;;17.83;;
6610;SDS011;44111;46.692;13.664;2023-03-01T08:08:44;25.67;;;18.53;;
